Time;durP1;ratioP1;P1;durP2;ratioP2;P2;SDS_P1;SDS_P2;PMS_P1;PMS_P2;Temp;Humidity;BMP_temperature;BMP_pressure;BME280_temperature;BME280_humidity;BME280_pressure;Samples;Min_cycle;Max_cycle;Signal;HPM_P1;HPM_P2
2023/06/03 00:01:28;;;;;;;1999.90;999.90;;;13.50;99.90;;;;;;5138528;27;20070;-73
2023/06/03 00:03:54;;;;;;;1999.90;999.90;;;13.50;99.90;;;;;;5138496;27;20039;-74
2023/06/03 00:06:20;;;;;;;1999.90;999.90;;;13.50;99.90;;;;;;5120658;27;20131;-74
2023/06/03 00:08:46;;;;;;;1999.90;999.90;;;13.40;99.90;;;;;;5120299;27;20051;-74
2023/06/03 00:11:13;;;;;;;1999.90;999.90;;;13.40;99.90;;;;;;5138294;27;20129;-74
2023/06/03 00:13:39;;;;;;;1999.90;999.90;;;13.40;99.90;;;;;;5138299;27;20135;-74
2023/06/03 00:16:05;;;;;;;1999.90;999.90;;;13.40;99.90;;;;;;5120058;27;20035;-74
2023/06/03 00:18:31;;;;;;;1999.90;999.90;;;13.40;99.90;;;;;;5085943;27;20075;-74
2023/06/03 00:20:57;;;;;;;1999.90;999.90;;;13.30;99.90;;;;;;5138161;27;20047;-74
2023/06/03 00:23:23;;;;;;;1999.90;999.90;;;13.30;99.90;;;;;;5119719;27;20494;-74
2023/06/03 00:25:49;;;;;;;1999.90;999.90;;;13.30;99.90;;;;;;5137980;27;20047;-74
2023/06/03 00:28:15;;;;;;;1999.90;999.90;;;13.30;99.90;;;;;;5119497;27;20050;-74
2023/06/03 00:30:41;;;;;;;1999.90;999.90;;;13.30;99.90;;;;;;5102796;27;20126;-74
2023/06/03 00:33:07;;;;;;;1999.90;999.90;;;13.20;99.90;;;;;;5138725;27;20083;-74
2023/06/03 00:35:33;;;;;;;1999.90;999.90;;;13.20;99.90;;;;;;5137840;27;20062;-74
2023/06/03 00:37:59;;;;;;;1999.90;999.90;;;13.20;99.90;;;;;;5137854;27;20089;-74
2023/06/03 00:40:25;;;;;;;1999.90;999.90;;;13.20;99.90;;;;;;5137858;27;20109;-73
2023/06/03 00:42:50;;;;;;;1999.90;999.90;;;13.10;99.90;;;;;;5119595;27;20039;-74
2023/06/03 00:45:16;;;;;;;1999.90;999.90;;;13.10;99.90;;;;;;5137633;27;20043;-74
2023/06/03 00:47:43;;;;;;;1999.90;999.90;;;13.10;99.90;;;;;;5137245;27;20091;-74
2023/06/03 00:50:10;;;;;;;1999.90;999.90;;;13.00;99.90;;;;;;5137623;27;20146;-74
2023/06/03 00:52:38;;;;;;;1999.90;999.90;;;13.00;99.90;;;;;;5137847;27;20047;-73
2023/06/03 00:55:05;;;;;;;1999.90;999.90;;;13.00;99.90;;;;;;5137402;27;20046;-76
2023/06/03 00:57:31;;;;;;;1999.90;999.90;;;13.00;99.90;;;;;;5137373;27;20483;-73
2023/06/03 00:59:57;;;;;;;1999.90;999.90;;;13.00;99.90;;;;;;5118330;27;20051;-73
2023/06/03 01:02:23;;;;;;;1999.90;999.90;;;13.00;99.90;;;;;;5137219;27;20046;-74
2023/06/03 01:04:50;;;;;;;1999.90;999.90;;;12.90;99.90;;;;;;5119954;27;20047;-74
2023/06/03 01:07:33;;;;;;;1999.90;999.90;;;12.90;99.90;;;;;;5137495;27;20095;-74
2023/06/03 01:10:09;;;;;;;1999.90;999.90;;;12.90;99.90;;;;;;5102018;27;20124;-74
2023/06/03 01:12:42;;;;;;;1999.90;999.90;;;12.90;99.90;;;;;;5119117;27;20055;-74
2023/06/03 01:15:20;;;;;;;1999.90;999.90;;;12.90;99.90;;;;;;5118929;27;20387;-74
2023/06/03 01:17:49;;;;;;;1999.90;999.90;;;12.90;99.90;;;;;;5119336;27;20062;-74
2023/06/03 01:20:17;;;;;;;1999.90;999.90;;;12.90;99.90;;;;;;5118636;27;20043;-74
2023/06/03 01:22:49;;;;;;;1999.90;999.90;;;12.80;99.90;;;;;;5136951;27;20126;-74
2023/06/03 01:25:16;;;;;;;1999.90;999.90;;;12.80;99.90;;;;;;5136898;27;20046;-74
2023/06/03 01:27:45;;;;;;;1999.90;999.90;;;12.80;99.90;;;;;;5118570;27;20364;-74
2023/06/03 01:30:14;;;;;;;1999.90;999.90;;;12.80;99.90;;;;;;5136834;27;20104;-74
2023/06/03 01:32:46;;;;;;;1999.90;999.90;;;12.70;99.90;;;;;;5136589;27;20503;-74
2023/06/03 01:35:13;;;;;;;1999.90;999.90;;;12.70;99.90;;;;;;5137307;27;20196;-76
2023/06/03 01:37:40;;;;;;;1999.90;999.90;;;12.70;99.90;;;;;;5136636;27;20043;-74
2023/06/03 01:40:07;;;;;;;1999.90;999.90;;;12.60;99.90;;;;;;5119339;27;20039;-74
2023/06/03 01:42:33;;;;;;;1999.90;999.90;;;12.60;99.90;;;;;;5136602;27;20043;-74
2023/06/03 01:45:03;;;;;;;1999.90;999.90;;;12.60;99.90;;;;;;5118456;27;20053;-74
2023/06/03 01:47:29;;;;;;;1999.90;999.90;;;12.50;99.90;;;;;;5102202;27;20125;-74
2023/06/03 01:49:54;;;;;;;1999.90;999.90;;;12.50;99.90;;;;;;5118167;27;20459;-74
2023/06/03 01:52:20;;;;;;;1999.90;999.90;;;12.40;99.90;;;;;;5136895;27;20055;-74
2023/06/03 01:54:46;;;;;;;1999.90;999.90;;;12.40;99.90;;;;;;5101187;27;20039;-74
2023/06/03 01:57:11;;;;;;;1999.90;999.90;;;12.30;99.90;;;;;;5136479;27;20069;-74
2023/06/03 01:59:37;;;;;;;1999.90;999.90;;;12.30;99.90;;;;;;5137107;27;20039;-74
2023/06/03 02:02:04;;;;;;;1999.90;999.90;;;12.30;99.90;;;;;;5136183;27;20047;-74
2023/06/03 02:04:29;;;;;;;1999.90;999.90;;;12.20;99.90;;;;;;5136479;27;20356;-74
2023/06/03 02:07:00;;;;;;;1999.90;999.90;;;12.20;99.90;;;;;;5136694;27;20091;-74
2023/06/03 02:09:27;;;;;;;1999.90;999.90;;;12.10;99.90;;;;;;5118059;27;20047;-74
2023/06/03 02:11:54;;;;;;;1999.90;999.90;;;12.00;99.90;;;;;;5135770;27;20514;-74
2023/06/03 02:14:20;;;;;;;1999.90;999.90;;;12.00;99.90;;;;;;5118123;27;20411;-74
2023/06/03 02:16:46;;;;;;;1999.90;999.90;;;12.00;99.90;;;;;;5101666;27;20185;-74
2023/06/03 02:19:28;;;;;;;1999.90;999.90;;;11.90;99.90;;;;;;5136643;27;20585;-74
2023/06/03 02:21:57;;;;;;;1999.90;999.90;;;11.90;99.90;;;;;;5135839;27;20050;-74
2023/06/03 02:24:23;;;;;;;1999.90;999.90;;;11.80;99.90;;;;;;5136575;27;20047;-74
2023/06/03 02:26:52;;;;;;;1999.90;999.90;;;11.80;99.90;;;;;;5117920;27;20070;-74
2023/06/03 02:29:27;;;;;;;1999.90;999.90;;;11.70;99.90;;;;;;5135580;27;20043;-74
2023/06/03 02:31:54;;;;;;;1999.90;999.90;;;11.70;99.90;;;;;;5135371;27;20057;-74
2023/06/03 02:34:21;;;;;;;1999.90;999.90;;;11.70;99.90;;;;;;5135595;27;20061;-73
2023/06/03 02:36:47;;;;;;;1999.90;999.90;;;11.70;99.90;;;;;;5135502;27;20047;-74
2023/06/03 02:39:13;;;;;;;1999.90;999.90;;;11.70;99.90;;;;;;5135485;27;20439;-74
2023/06/03 02:41:41;;;;;;;1999.90;999.90;;;11.60;99.90;;;;;;5117019;27;20079;-74
2023/06/03 02:44:07;;;;;;;1999.90;999.90;;;11.60;99.90;;;;;;5135386;27;20439;-74
2023/06/03 02:46:33;;;;;;;1999.90;999.90;;;11.60;99.90;;;;;;5135338;27;20086;-74
2023/06/03 02:49:08;;;;;;;1999.90;999.90;;;11.60;99.90;;;;;;5135961;27;20084;-74
2023/06/03 02:51:35;;;;;;;1999.90;999.90;;;11.50;99.90;;;;;;5116955;27;20091;-74
2023/06/03 02:54:01;;;;;;;1999.90;999.90;;;11.50;99.90;;;;;;5116821;27;20043;-74
2023/06/03 02:56:26;;;;;;;1999.90;999.90;;;11.50;99.90;;;;;;5135926;27;20474;-74
2023/06/03 02:58:52;;;;;;;1999.90;999.90;;;11.50;99.90;;;;;;5116774;27;20074;-74
2023/06/03 03:01:18;;;;;;;1999.90;999.90;;;11.50;99.90;;;;;;5100236;27;20404;-74
2023/06/03 03:03:44;;;;;;;1999.90;999.90;;;11.50;99.90;;;;;;5135010;27;20039;-74
2023/06/03 03:06:15;;;;;;;1999.90;999.90;;;11.40;99.90;;;;;;5135350;27;20065;-74
2023/06/03 03:08:42;;;;;;;1999.90;999.90;;;11.40;99.90;;;;;;5135506;27;20047;-74
2023/06/03 03:11:11;;;;;;;1999.90;999.90;;;11.40;99.90;;;;;;5117224;27;20079;-74
2023/06/03 03:13:36;;;;;;;1999.90;999.90;;;11.40;99.90;;;;;;5116573;27;20119;-74
2023/06/03 03:16:02;;;;;;;1999.90;999.90;;;11.40;99.90;;;;;;5116959;27;20459;-74
2023/06/03 03:18:28;;;;;;;1999.90;999.90;;;11.40;99.90;;;;;;5117468;27;20050;-74
2023/06/03 03:20:54;;;;;;;1999.90;999.90;;;11.40;99.90;;;;;;5116581;27;20087;-74
2023/06/03 03:23:20;;;;;;;1999.90;999.90;;;11.30;99.90;;;;;;5134108;27;20119;-74
2023/06/03 03:25:46;;;;;;;1999.90;999.90;;;11.40;99.90;;;;;;5117330;27;20043;-74
2023/06/03 03:28:11;;;;;;;1999.90;999.90;;;11.40;99.90;;;;;;5134687;27;20047;-74
2023/06/03 03:30:38;;;;;;;1999.90;999.90;;;11.30;99.90;;;;;;5134669;27;20047;-74
2023/06/03 03:33:04;;;;;;;1999.90;999.90;;;11.40;99.90;;;;;;5116231;28;20083;-74
2023/06/03 03:35:31;;;;;;;1999.90;999.90;;;11.30;99.90;;;;;;5116283;28;20074;-74
2023/06/03 03:38:01;;;;;;;1999.90;999.90;;;11.30;99.90;;;;;;5134625;28;20089;-74
2023/06/03 03:40:29;;;;;;;1999.90;999.90;;;11.40;99.90;;;;;;5116355;28;20047;-74
2023/06/03 03:42:55;;;;;;;1999.90;999.90;;;11.30;99.90;;;;;;5134470;28;20099;-74
2023/06/03 03:45:26;;;;;;;1999.90;999.90;;;11.30;99.90;;;;;;5134485;28;20051;-74
2023/06/03 03:47:57;;;;;;;1999.90;999.90;;;11.30;99.90;;;;;;5135205;28;20092;-74
2023/06/03 03:50:44;;;;;;;1999.90;999.90;;;11.30;99.90;;;;;;5099719;28;20039;-74
2023/06/03 03:53:15;;;;;;;1999.90;999.90;;;11.30;99.90;;;;;;5100183;28;20153;-74
2023/06/03 03:55:47;;;;;;;1999.90;999.90;;;11.40;99.90;;;;;;5116029;28;20110;-74
2023/06/03 03:58:42;;;;;;;1999.90;999.90;;;11.30;99.90;;;;;;5134453;28;20101;-74
2023/06/03 04:01:17;;;;;;;1999.90;999.90;;;11.40;99.90;;;;;;5105696;28;20048;-74
2023/06/03 04:03:47;;;;;;;1999.90;999.90;;;11.40;99.90;;;;;;5134332;28;20088;-74
2023/06/03 04:06:29;;;;;;;1999.90;999.90;;;11.40;99.90;;;;;;5116583;28;20108;-74
2023/06/03 04:08:56;;;;;;;1999.90;999.90;;;11.40;99.90;;;;;;5116878;28;20126;-74
2023/06/03 04:11:30;;;;;;;1999.90;999.90;;;11.40;99.90;;;;;;5133972;28;20567;-74
2023/06/03 04:14:00;;;;;;;1999.90;999.90;;;11.40;99.90;;;;;;5134234;28;20043;-74
2023/06/03 04:16:46;;;;;;;1999.90;999.90;;;11.40;99.90;;;;;;5099969;28;20062;-75
2023/06/03 04:19:20;;;;;;;1999.90;999.90;;;11.50;99.90;;;;;;5134221;28;20039;-74
2023/06/03 04:21:46;;;;;;;1999.90;999.90;;;11.50;99.90;;;;;;5134307;28;20092;-73
2023/06/03 04:24:12;;;;;;;1999.90;999.90;;;11.50;99.90;;;;;;5116856;28;20449;-73
2023/06/03 04:26:38;;;;;;;1999.90;999.90;;;11.50;99.90;;;;;;5115889;28;20126;-74
2023/06/03 04:29:04;;;;;;;1999.90;999.90;;;11.60;99.90;;;;;;5134028;28;20054;-74
2023/06/03 04:31:30;;;;;;;1999.90;999.90;;;11.60;99.90;;;;;;5134023;28;20054;-74
2023/06/03 04:33:56;;;;;;;1999.90;999.90;;;11.60;99.90;;;;;;5115338;27;20047;-73
2023/06/03 04:36:22;;;;;;;1999.90;999.90;;;11.70;99.90;;;;;;5137878;27;20047;-74
2023/06/03 04:38:48;;;;;;;1999.90;999.90;;;11.70;99.90;;;;;;5137828;27;20434;-74
2023/06/03 04:41:16;;;;;;;1999.90;999.90;;;11.70;99.90;;;;;;5119646;27;20043;-74
2023/06/03 04:43:45;;;;;;;1999.90;999.90;;;11.70;99.90;;;;;;5119673;27;20055;-74
2023/06/03 04:46:11;;;;;;;1999.90;999.90;;;11.70;99.90;;;;;;5138560;27;20126;-74
2023/06/03 04:48:41;;;;;;;1999.90;999.90;;;11.70;99.90;;;;;;5137547;27;20110;-74
2023/06/03 04:51:07;;;;;;;1999.90;999.90;;;11.70;99.90;;;;;;5119656;27;20039;-74
2023/06/03 04:53:37;;;;;;;1999.90;999.90;;;11.70;99.90;;;;;;5137594;27;20130;-74
2023/06/03 04:56:03;;;;;;;1999.90;999.90;;;11.80;99.90;;;;;;5137493;27;20386;-74
2023/06/03 04:58:30;;;;;;;1999.90;999.90;;;11.80;99.90;;;;;;5137738;27;20459;-74
2023/06/03 05:00:56;;;;;;;1999.90;999.90;;;11.80;99.90;;;;;;5137439;27;20043;-74
2023/06/03 05:03:22;;;;;;;1999.90;999.90;;;11.80;99.90;;;;;;5138222;27;20100;-74
2023/06/03 05:05:48;;;;;;;1999.90;999.90;;;11.80;99.90;;;;;;5119111;27;20421;-74
2023/06/03 05:08:14;;;;;;;1999.90;999.90;;;11.80;99.90;;;;;;5118954;27;20474;-74
2023/06/03 05:10:40;;;;;;;1999.90;999.90;;;11.90;99.90;;;;;;5119941;27;20043;-74
2023/06/03 05:13:06;;;;;;;1999.90;999.90;;;11.90;99.90;;;;;;5102360;27;20131;-74
2023/06/03 05:15:33;;;;;;;1999.90;999.90;;;11.90;99.90;;;;;;5102089;27;20082;-74
2023/06/03 05:18:02;;;;;;;1999.90;999.90;;;11.90;99.90;;;;;;5137655;27;20043;-74
2023/06/03 05:20:28;;;;;;;1999.90;999.90;;;12.00;99.90;;;;;;5137017;27;20039;-74
2023/06/03 05:22:55;;;;;;;1999.90;999.90;;;12.00;99.90;;;;;;5102620;27;20054;-73
2023/06/03 05:25:22;;;;;;;1999.90;999.90;;;12.00;99.90;;;;;;5118777;27;20051;-73
2023/06/03 05:27:47;;;;;;;1999.90;999.90;;;12.10;99.90;;;;;;5101698;27;20409;-73
2023/06/03 05:30:13;;;;;;;1999.90;999.90;;;12.10;99.90;;;;;;5136822;27;20043;-73
2023/06/03 05:32:42;;;;;;;1999.90;999.90;;;12.10;99.90;;;;;;5136674;27;20051;-73
2023/06/03 05:35:09;;;;;;;1999.90;999.90;;;12.20;99.90;;;;;;5118629;27;20058;-74
2023/06/03 05:37:35;;;;;;;1999.90;999.90;;;12.20;99.90;;;;;;5118438;27;20042;-74
2023/06/03 05:40:01;;;;;;;1999.90;999.90;;;12.20;99.90;;;;;;5118315;27;20047;-73
2023/06/03 05:42:27;;;;;;;1999.90;999.90;;;12.30;99.90;;;;;;5118508;27;20044;-73
2023/06/03 05:44:52;;;;;;;1999.90;999.90;;;12.40;99.90;;;;;;5118252;27;20076;-73
2023/06/03 05:47:18;;;;;;;1999.90;999.90;;;12.40;99.90;;;;;;5136497;27;20073;-73
2023/06/03 05:49:44;;;;;;;1999.90;999.90;;;12.40;99.90;;;;;;5136049;27;20031;-73
2023/06/03 05:52:09;;;;;;;1999.90;999.90;;;12.50;99.90;;;;;;5136419;27;20131;-74
2023/06/03 05:54:35;;;;;;;1999.90;999.90;;;12.50;99.90;;;;;;5136820;27;20054;-74
2023/06/03 05:57:01;;;;;;;1999.90;999.90;;;12.60;99.90;;;;;;5136280;27;20043;-74
2023/06/03 05:59:26;;;;;;;1999.90;999.90;;;12.60;99.90;;;;;;5136268;27;20047;-74
2023/06/03 06:01:52;;;;;;;1999.90;999.90;;;12.60;99.90;;;;;;5118105;27;20050;-74
2023/06/03 06:04:18;;;;;;;1999.90;999.90;;;12.70;99.90;;;;;;5136255;27;20130;-74
2023/06/03 06:06:43;;;;;;;1999.90;999.90;;;12.70;99.90;;;;;;5117852;27;20411;-73
2023/06/03 06:09:09;;;;;;;1999.90;999.90;;;12.70;99.90;;;;;;5135983;27;20035;-74
2023/06/03 06:11:35;;;;;;;1999.90;999.90;;;12.80;99.90;;;;;;5136641;27;20047;-74
2023/06/03 06:14:01;;;;;;;1999.90;999.90;;;12.80;99.90;;;;;;5136387;27;20475;-73
2023/06/03 06:16:26;;;;;;;1999.90;999.90;;;12.80;99.90;;;;;;5101078;27;20083;-74
2023/06/03 06:18:52;;;;;;;1999.90;999.90;;;12.90;99.90;;;;;;5135553;27;20118;-74
2023/06/03 06:21:18;;;;;;;1999.90;999.90;;;12.90;99.90;;;;;;5117522;27;20043;-74
2023/06/03 06:23:43;;;;;;;1999.90;999.90;;;13.00;99.90;;;;;;5135836;27;20106;-74
2023/06/03 06:26:13;;;;;;;1999.90;999.90;;;13.00;99.90;;;;;;5135708;27;20467;-74
2023/06/03 06:28:39;;;;;;;1999.90;999.90;;;13.00;99.90;;;;;;5135875;27;20535;-74
2023/06/03 06:31:04;;;;;;;1999.90;999.90;;;13.00;99.90;;;;;;5117293;27;20042;-74
2023/06/03 06:33:34;;;;;;;1999.90;999.90;;;13.00;99.90;;;;;;5136146;27;20050;-74
2023/06/03 06:36:41;;;;;;;1999.90;999.90;;;13.10;99.90;;;;;;5135533;27;20043;-73
2023/06/03 06:39:32;;;;;;;1999.90;999.90;;;13.10;99.90;;;;;;5134883;27;20051;-74
2023/06/03 06:42:25;;;;;;;1999.90;999.90;;;13.20;99.90;;;;;;5135570;27;20050;-74
2023/06/03 06:44:51;;;;;;;1999.90;999.90;;;13.30;99.90;;;;;;5136000;27;20046;-73
2023/06/03 06:47:22;;;;;;;1999.90;999.90;;;13.30;99.90;;;;;;5135288;27;20039;-73
2023/06/03 06:49:49;;;;;;;1999.90;999.90;;;13.40;99.90;;;;;;5135905;27;20042;-74
2023/06/03 06:52:15;;;;;;;1999.90;999.90;;;13.50;99.90;;;;;;5116931;27;20391;-74
2023/06/03 06:54:41;;;;;;;1999.90;999.90;;;13.50;99.90;;;;;;5117402;27;20039;-74
2023/06/03 06:57:07;;;;;;;1999.90;999.90;;;13.60;99.90;;;;;;5135014;27;20433;-74
2023/06/03 06:59:33;;;;;;;1999.90;999.90;;;13.70;99.90;;;;;;5116246;27;20043;-74
2023/06/03 07:01:59;;;;;;;1999.90;999.90;;;13.70;99.90;;;;;;5099965;27;20091;-74
2023/06/03 07:04:25;;;;;;;1999.90;999.90;;;13.80;99.90;;;;;;5135023;27;20039;-73
2023/06/03 07:06:50;;;;;;;1999.90;999.90;;;13.90;99.90;;;;;;5116730;27;20083;-73
2023/06/03 07:09:16;;;;;;;1999.90;999.90;;;14.00;99.90;;;;;;5082739;27;20047;-73
2023/06/03 07:11:46;;;;;;;1999.90;999.90;;;14.00;99.90;;;;;;5134898;27;20043;-74
2023/06/03 07:14:13;;;;;;;1999.90;999.90;;;14.10;99.90;;;;;;5134858;27;20042;-73
2023/06/03 07:16:42;;;;;;;1999.90;999.90;;;14.20;99.90;;;;;;5134892;27;20058;-73
2023/06/03 07:19:08;;;;;;;1999.90;999.90;;;14.20;99.90;;;;;;5099838;27;20058;-73
2023/06/03 07:21:34;;;;;;;1999.90;999.90;;;14.30;99.90;;;;;;5135294;27;20043;-74
2023/06/03 07:24:00;;;;;;;1999.90;999.90;;;14.40;99.90;;;;;;5116596;27;20126;-73
2023/06/03 07:26:33;;;;;;;1999.90;999.90;;;14.50;99.90;;;;;;5134663;27;20143;-74
2023/06/03 07:28:58;;;;;;;;;;;14.50;99.90;;;;;;5116853;28;20043;-74
2023/06/03 07:31:24;;;;;;;1999.90;999.90;;;14.60;99.90;;;;;;5116228;27;19920;-73
2023/06/03 07:33:54;;;;;;;1999.90;999.90;;;14.70;99.90;;;;;;5134145;27;20066;-73
2023/06/03 07:36:21;;;;;;;1999.90;999.90;;;14.80;99.90;;;;;;5134607;27;20039;-73
2023/06/03 07:39:00;;;;;;;1999.90;999.90;;;14.90;99.90;;;;;;5116444;28;20047;-73
2023/06/03 07:41:32;;;;;;;1999.90;999.90;;;15.00;99.90;;;;;;5134551;28;20058;-73
2023/06/03 07:43:58;;;;;;;1999.90;999.90;;;15.10;99.90;;;;;;5134910;28;20131;-73
2023/06/03 07:46:39;;;;;;;1999.90;999.90;;;15.20;99.90;;;;;;5134602;28;20050;-73
2023/06/03 07:49:16;;;;;;;1999.90;999.90;;;15.30;99.90;;;;;;5116545;28;20494;-73
2023/06/03 07:51:47;;;;;;;1999.90;999.90;;;15.40;99.90;;;;;;5134619;28;20065;-73
2023/06/03 07:54:14;;;;;;;1999.90;999.90;;;15.50;99.90;;;;;;5134477;28;20096;-73
2023/06/03 07:56:40;;;;;;;1999.90;999.90;;;15.50;99.90;;;;;;5134478;28;20130;-75
2023/06/03 07:59:10;;;;;;;1999.90;999.90;;;15.70;99.90;;;;;;5134553;28;20039;-76
2023/06/03 08:01:36;;;;;;;1999.90;999.90;;;15.80;99.90;;;;;;5135071;28;20375;-76
2023/06/03 08:04:28;;;;;;;1999.90;999.90;;;15.90;99.90;;;;;;5134510;28;20130;-77
2023/06/03 08:06:55;;;;;;;1999.90;999.90;;;16.00;99.90;;;;;;5117328;28;20061;-76
2023/06/03 08:09:35;;;;;;;1999.90;999.90;;;16.10;99.90;;;;;;5117205;27;20442;-76
2023/06/03 08:12:10;;;;;;;1999.90;999.90;;;16.20;99.90;;;;;;5138681;27;20051;-76
2023/06/03 08:14:38;;;;;;;1999.90;999.90;;;16.30;99.90;;;;;;5139254;27;20110;-76
2023/06/03 08:17:12;;;;;;;1999.90;999.90;;;16.40;99.90;;;;;;5120044;27;20087;-75
2023/06/03 08:19:38;;;;;;;1999.90;999.90;;;16.50;99.90;;;;;;5119969;27;20062;-74
2023/06/03 08:22:29;;;;;;;1999.90;999.90;;;16.60;99.80;;;;;;5120248;27;20050;-75
2023/06/03 08:24:54;;;;;;;1999.90;999.90;;;16.70;99.60;;;;;;5120512;27;20047;-75
2023/06/03 08:27:20;;;;;;;1999.90;999.90;;;16.80;99.20;;;;;;5138126;27;20394;-75
2023/06/03 08:29:46;;;;;;;1999.90;999.90;;;16.90;98.90;;;;;;5120073;27;20050;-75
2023/06/03 08:32:12;;;;;;;1999.90;999.90;;;17.00;98.50;;;;;;5119871;27;20146;-74
2023/06/03 08:34:37;;;;;;;1999.90;999.90;;;17.00;98.20;;;;;;5102879;27;20047;-74
2023/06/03 08:37:03;;;;;;;1999.90;999.90;;;17.10;97.80;;;;;;5138141;27;20066;-75
2023/06/03 08:39:29;;;;;;;1999.90;999.90;;;17.10;97.30;;;;;;5137992;27;20128;-75
2023/06/03 08:42:01;;;;;;;1999.90;999.90;;;17.20;96.90;;;;;;5120505;27;20051;-75
2023/06/03 08:44:35;;;;;;;1999.90;999.90;;;17.20;96.90;;;;;;5137767;27;20089;-75
2023/06/03 08:47:15;;;;;;;1999.90;999.90;;;17.30;96.80;;;;;;5103405;27;20183;-75
2023/06/03 08:49:58;;;;;;;1999.90;999.90;;;17.30;96.20;;;;;;5138247;27;20043;-75
2023/06/03 08:52:25;;;;;;;;;;;17.20;95.50;;;;;;5139080;27;20062;-75
2023/06/03 08:54:55;;;;;;;1999.90;999.90;;;17.10;95.20;;;;;;5137694;27;19930;-75
2023/06/03 08:57:21;;;;;;;1999.90;999.90;;;17.10;94.90;;;;;;5103379;27;20504;-75
2023/06/03 08:59:52;;;;;;;1999.90;999.90;;;17.00;94.10;;;;;;5119175;27;20047;-75
2023/06/03 09:02:18;;;;;;;1999.90;999.90;;;16.90;93.60;;;;;;5120009;27;20388;-72
2023/06/03 09:04:47;;;;;;;1999.90;999.90;;;16.80;93.40;;;;;;5138486;27;20054;-72
2023/06/03 09:07:14;;;;;;;1999.90;999.90;;;16.80;93.10;;;;;;5137268;27;20051;-72
2023/06/03 09:09:41;;;;;;;1999.90;999.90;;;16.70;92.70;;;;;;5137744;27;20390;-72
2023/06/03 09:12:08;;;;;;;1999.90;999.90;;;16.70;92.40;;;;;;5119338;27;20051;-72
2023/06/03 09:14:36;;;;;;;1999.90;999.90;;;16.60;92.40;;;;;;5137465;27;20043;-72
2023/06/03 09:17:02;;;;;;;1999.90;999.90;;;16.60;92.40;;;;;;5136961;27;20051;-72
2023/06/03 09:19:28;;;;;;;1999.90;999.90;;;16.60;92.50;;;;;;5137048;27;20092;-72
2023/06/03 09:27:05;;;;;;;1999.90;999.90;;;16.70;91.60;;;;;;5659059;22;20050;-77
2023/06/03 09:29:31;;;;;;;1999.90;999.90;;;16.70;91.50;;;;;;5046369;28;20059;-76
2023/06/03 09:31:58;;;;;;;1999.90;999.90;;;16.70;90.90;;;;;;5046253;28;20053;-77
2023/06/03 09:34:26;;;;;;;1999.90;999.90;;;16.80;90.80;;;;;;5054249;28;20056;-79
2023/06/03 09:36:52;;;;;;;1999.90;999.90;;;16.80;91.20;;;;;;5055362;28;20044;-75
2023/06/03 09:39:32;;;;;;;1999.90;999.90;;;16.90;91.40;;;;;;5054880;28;20037;-77
2023/06/03 09:41:58;;;;;;;1999.90;999.90;;;17.00;91.10;;;;;;5056130;28;20048;-79
2023/06/03 09:44:24;;;;;;;1999.90;999.90;;;17.00;91.10;;;;;;5053433;28;20053;-77
2023/06/03 09:46:52;;;;;;;1999.90;999.90;;;17.10;90.90;;;;;;5055278;28;20083;-79
2023/06/03 09:49:21;;;;;;;1999.90;999.90;;;17.20;90.70;;;;;;5055634;28;20390;-78
2023/06/03 09:51:48;;;;;;;1999.90;999.90;;;17.20;90.60;;;;;;5054868;28;20106;-76
2023/06/03 09:54:18;;;;;;;1999.90;999.90;;;17.30;88.60;;;;;;5053964;28;20045;-79
2023/06/03 09:56:45;;;;;;;1999.90;999.90;;;17.40;88.40;;;;;;5054344;28;20044;-78
2023/06/03 09:59:23;;;;;;;1999.90;999.90;;;17.40;88.00;;;;;;5053278;28;20045;-77
2023/06/03 10:01:51;;;;;;;1999.90;999.90;;;17.50;88.10;;;;;;5054875;28;20048;-74
2023/06/03 10:04:36;;;;;;;1999.90;999.90;;;17.50;87.70;;;;;;5054642;28;20040;-76
2023/06/03 10:07:29;;;;;;;1999.90;999.90;;;17.70;87.90;;;;;;5035706;28;20076;-74
2023/06/03 10:10:05;;;;;;;1999.90;999.90;;;17.70;88.00;;;;;;5051183;28;20060;-73
2023/06/03 10:12:33;;;;;;;1999.90;999.90;;;17.80;87.30;;;;;;5054459;28;20044;-77
2023/06/03 10:14:59;;;;;;;1999.90;999.90;;;17.80;85.10;;;;;;5054457;28;20048;-76
2023/06/03 10:17:26;;;;;;;1999.90;999.90;;;17.80;84.60;;;;;;5078233;28;20041;-77
2023/06/03 10:19:52;;;;;;;1999.90;999.90;;;17.80;84.60;;;;;;5053247;28;20112;-79
2023/06/03 10:22:19;;;;;;;1999.90;999.90;;;17.90;84.10;;;;;;5052833;28;20116;-81
2023/06/03 10:24:49;;;;;;;1999.90;999.90;;;18.00;83.50;;;;;;5048607;28;20049;-76
2023/06/03 10:27:16;;;;;;;1999.90;999.90;;;18.00;83.00;;;;;;5050194;28;20072;-78
2023/06/03 10:29:43;;;;;;;1999.90;999.90;;;18.10;83.10;;;;;;5053342;28;20507;-80
2023/06/03 10:32:14;;;;;;;1999.90;999.90;;;18.10;83.00;;;;;;5061156;28;20049;-80
2023/06/03 10:34:41;;;;;;;1999.90;999.90;;;18.10;82.80;;;;;;5059349;28;20119;-78
2023/06/03 10:37:09;;;;;;;1999.90;999.90;;;18.20;82.50;;;;;;5053792;28;20049;-80
2023/06/03 10:39:34;;;;;;;1999.90;999.90;;;18.20;82.40;;;;;;5053685;28;20048;-78
2023/06/03 10:42:03;;;;;;;1999.90;999.90;;;18.20;82.40;;;;;;5036313;28;20041;-79
2023/06/03 10:44:30;;;;;;;1999.90;999.90;;;18.30;82.50;;;;;;5053287;28;20480;-80
2023/06/03 10:46:59;;;;;;;1999.90;999.90;;;18.40;82.20;;;;;;5077353;28;20051;-80
2023/06/03 10:49:33;;;;;;;1999.90;999.90;;;18.40;82.10;;;;;;5053253;28;20041;-80
2023/06/03 10:52:18;;;;;;;1999.90;999.90;;;18.50;81.90;;;;;;5052101;28;20057;-79
2023/06/03 10:55:09;;;;;;;1999.90;999.90;;;18.50;81.30;;;;;;5051805;28;20045;-78
2023/06/03 10:57:49;;;;;;;1999.90;999.90;;;18.50;80.60;;;;;;5050005;28;20135;-80
2023/06/03 11:00:53;;;;;;;1999.90;999.90;;;18.60;80.00;;;;;;5050983;28;20040;-78
2023/06/03 11:03:21;;;;;;;1999.90;999.90;;;18.60;80.30;;;;;;5053752;28;20045;-81
2023/06/03 11:05:50;;;;;;;1999.90;999.90;;;18.60;80.10;;;;;;5053011;28;20056;-84
2023/06/03 11:09:02;;;;;;;1999.90;999.90;;;18.60;79.90;;;;;;5052293;28;20040;-83
2023/06/03 11:11:40;;;;;;;1999.90;999.90;;;18.70;80.60;;;;;;4991912;28;20050;-80
2023/06/03 11:14:06;;;;;;;1999.90;999.90;;;18.80;79.70;;;;;;4992007;28;20121;-82
2023/06/03 11:16:57;;;;;;;1999.90;999.90;;;18.80;79.30;;;;;;5028651;28;20057;-78
2023/06/03 11:19:31;;;;;;;1999.90;999.90;;;18.80;79.40;;;;;;5053299;28;20067;-79
2023/06/03 11:21:57;;;;;;;1999.90;999.90;;;18.90;79.20;;;;;;5052449;28;20412;-75
2023/06/03 11:24:38;;;;;;;1999.90;999.90;;;18.90;79.30;;;;;;5045817;28;20057;-78
2023/06/03 11:27:10;;;;;;;1999.90;999.90;;;18.90;80.00;;;;;;5048295;28;20062;-79
2023/06/03 11:29:48;;;;;;;1999.90;999.90;;;19.00;79.60;;;;;;5048774;28;20050;-77
2023/06/03 11:32:19;;;;;;;1999.90;999.90;;;19.10;79.40;;;;;;5016010;28;20088;-79
2023/06/03 11:34:47;;;;;;;1999.90;999.90;;;19.10;78.80;;;;;;5032153;28;20048;-74
2023/06/03 11:37:20;;;;;;;1999.90;999.90;;;19.10;78.30;;;;;;5031904;28;20041;-75
2023/06/03 11:40:07;;;;;;;1999.90;999.90;;;19.10;77.90;;;;;;5041413;28;20041;-76
2023/06/03 11:42:54;;;;;;;1999.90;999.90;;;19.10;77.70;;;;;;5052942;28;20037;-74
2023/06/03 11:45:20;;;;;;;1999.90;999.90;;;19.20;77.50;;;;;;5022099;28;20087;-73
2023/06/03 11:47:52;;;;;;;1999.90;999.90;;;19.20;75.60;;;;;;5049459;28;20429;-77
2023/06/03 11:50:20;;;;;;;1999.90;999.90;;;19.30;75.50;;;;;;5053247;28;20045;-77
2023/06/03 11:52:45;;;;;;;1999.90;999.90;;;19.20;75.10;;;;;;5052925;28;20049;-76
2023/06/03 11:55:28;;;;;;;1999.90;999.90;;;19.30;75.20;;;;;;5040491;28;20540;-77
2023/06/03 11:57:56;;;;;;;1999.90;999.90;;;19.40;75.00;;;;;;5032139;28;20049;-78
2023/06/03 12:00:22;;;;;;;1999.90;999.90;;;19.40;74.60;;;;;;5031900;28;20507;-78
2023/06/03 12:02:48;;;;;;;1999.90;999.90;;;19.40;73.60;;;;;;5052045;28;20045;-77
2023/06/03 12:05:15;;;;;;;1999.90;999.90;;;19.40;73.40;;;;;;5053088;28;20049;-77
2023/06/03 12:07:54;;;;;;;1999.90;999.90;;;19.50;72.30;;;;;;5052847;28;20049;-78
2023/06/03 12:10:20;;;;;;;1999.90;999.90;;;19.40;73.20;;;;;;5051772;28;20067;-77
2023/06/03 12:12:53;;;;;;;1999.90;999.90;;;19.50;73.00;;;;;;5051746;28;20132;-78
2023/06/03 12:15:20;;;;;;;1999.90;999.90;;;19.50;72.90;;;;;;5052961;28;20080;-78
2023/06/03 12:17:46;;;;;;;1999.90;999.90;;;19.50;71.70;;;;;;5051398;28;20052;-77